SLAS/ASC METAR and TAF weather

Enter ICAO airport designator
Station Type Date Time Source
SLAS METAR 2021/04/13 17:00 UTC NOAA

SLAS 131700Z 19010KT 9999 NSC 30/20 Q1018


Station Type Date Time Source
SLAS Decoded METAR 2021/04/13 17:00 UTC NOAA

Ascencion De Guarayos, Bolivia (SLAS) 15-43S 063-06W
Apr 13, 2021 - 01:00 PM EDT / 2021.04.13 1700 UTC
Wind: from the S (190 degrees) at 12 MPH (10 KT):0
Visibility: greater than 7 mile(s):0
Temperature: 86 F (30 C)
Dew Point: 68 F (20 C)
Relative Humidity: 55%
Pressure (altimeter): 30.06 in. Hg (1018 hPa)
ob: SLAS 131700Z 19010KT 9999 NSC 30/20 Q1018
cycle: 17

Station Type Date Time Source
SLAS TAF UTC NOAA

Error!

Example: see airport list